Time;durP1;ratioP1;P1;durP2;ratioP2;P2;SDS_P1;SDS_P2;PMS_P1;PMS_P2;Temp;Humidity;BMP_temperature;BMP_pressure;BME280_temperature;BME280_humidity;BME280_pressure;Samples;Min_cycle;Max_cycle;Signal;HPM_P1;HPM_P2
2024/03/20 00:01:32;;;;;;;24.88;13.38;;;;;;;5.82;57.26;100891.25;5134915;27;20344;-49
2024/03/20 00:04:00;;;;;;;24.30;13.23;;;;;;;5.84;57.50;100888.56;5134784;27;20047;-46
2024/03/20 00:06:32;;;;;;;24.02;12.50;;;;;;;5.91;58.01;100888.34;5134460;27;20108;-46
2024/03/20 00:09:01;;;;;;;21.30;12.75;;;;;;;5.87;58.15;100888.44;5134373;27;20146;-46
2024/03/20 00:11:29;;;;;;;23.52;12.70;;;;;;;5.92;57.94;100889.22;5133907;27;20082;-45
2024/03/20 00:13:57;;;;;;;26.27;13.82;;;;;;;5.79;58.53;100890.47;5133908;27;20051;-48
2024/03/20 00:16:24;;;;;;;25.13;13.07;;;;;;;5.82;58.05;100906.28;5134188;27;20047;-46
2024/03/20 00:18:51;;;;;;;24.90;13.23;;;;;;;5.73;58.37;100895.03;5134287;27;20138;-47
2024/03/20 00:21:18;;;;;;;26.05;13.13;;;;;;;5.67;58.75;100895.22;5133873;27;20499;-47
2024/03/20 00:23:46;;;;;;;26.15;13.35;;;;;;;5.49;59.19;100887.81;5133903;27;20051;-46
2024/03/20 00:26:14;;;;;;;25.23;12.90;;;;;;;5.51;59.37;100893.94;5134187;27;20043;-47
2024/03/20 00:28:42;;;;;;;27.85;13.57;;;;;;;5.60;58.84;100883.09;5134021;27;20062;-47
2024/03/20 00:31:09;;;;;;;25.33;12.93;;;;;;;5.75;58.86;100879.97;5134133;27;20051;-48
2024/03/20 00:33:36;;;;;;;22.63;12.50;;;;;;;5.75;58.99;100885.25;5133808;27;20043;-47
2024/03/20 00:36:04;;;;;;;25.83;12.80;;;;;;;5.85;58.58;100874.41;5133331;27;20415;-47
2024/03/20 00:38:31;;;;;;;29.25;14.05;;;;;;;5.72;58.97;100872.13;5133658;27;20077;-46
2024/03/20 00:40:59;;;;;;;23.55;13.00;;;;;;;5.75;58.94;100882.63;5133638;27;20425;-46
2024/03/20 00:43:27;;;;;;;26.02;13.35;;;;;;;5.77;58.60;100879.91;5134144;27;20082;-47
2024/03/20 00:45:54;;;;;;;25.25;12.63;;;;;;;5.73;58.86;100878.28;5133900;27;20131;-47
2024/03/20 00:48:22;;;;;;;22.58;12.57;;;;;;;5.77;58.07;100876.41;5133714;27;20043;-47
2024/03/20 00:50:49;;;;;;;24.65;12.75;;;;;;;5.75;58.56;100884.41;5134034;27;20046;-47
2024/03/20 00:53:16;;;;;;;25.50;13.13;;;;;;;5.71;58.81;100873.06;5133242;27;20043;-45
2024/03/20 00:55:44;;;;;;;23.90;12.43;;;;;;;5.83;58.88;100877.09;5133771;27;20438;-48
2024/03/20 00:58:14;;;;;;;26.88;13.18;;;;;;;5.54;58.58;100875.31;5134264;27;20039;-47
2024/03/20 01:00:46;;;;;;;24.23;13.23;;;;;;;5.68;58.98;100873.13;5133258;27;20043;-47
2024/03/20 01:03:13;;;;;;;25.52;13.32;;;;;;;5.68;59.23;100865.19;5133523;27;20122;-48
2024/03/20 01:05:41;;;;;;;25.30;13.18;;;;;;;5.65;59.11;100864.41;5133332;27;20039;-46
2024/03/20 01:08:08;;;;;;;24.15;12.80;;;;;;;5.66;59.26;100869.66;5133480;27;20404;-46
2024/03/20 01:10:38;;;;;;;28.58;14.60;;;;;;;5.64;59.36;100867.97;5133205;27;20142;-46
2024/03/20 01:13:05;;;;;;;23.60;13.45;;;;;;;5.65;59.27;100867.06;5115797;27;20088;-51
2024/03/20 01:15:34;;;;;;;24.52;13.23;;;;;;;5.50;59.80;100865.75;5132945;27;20047;-46
2024/03/20 01:18:04;;;;;;;22.65;12.52;;;;;;;5.50;60.10;100857.81;5132445;27;20046;-45
2024/03/20 01:20:31;;;;;;;26.35;13.30;;;;;;;5.56;60.25;100857.63;5132543;27;20609;-47
2024/03/20 01:22:58;;;;;;;24.00;12.80;;;;;;;5.54;60.26;100854.16;5132181;27;20134;-45
2024/03/20 01:25:26;;;;;;;25.73;13.10;;;;;;;5.50;60.45;100854.28;5132508;27;20087;-46
2024/03/20 01:27:53;;;;;;;24.60;12.77;;;;;;;5.54;60.34;100854.16;5132311;27;20043;-48
2024/03/20 01:30:20;;;;;;;23.35;13.27;;;;;;;5.49;60.60;100856.06;5131988;27;20079;-47
2024/03/20 01:32:48;;;;;;;26.30;13.20;;;;;;;5.37;60.20;100852.00;5131817;27;20047;-47
2024/03/20 01:35:17;;;;;;;24.83;12.55;;;;;;;5.30;60.64;100861.03;5132116;27;20051;-47
2024/03/20 01:37:44;;;;;;;27.80;14.55;;;;;;;5.17;61.47;100865.81;5132030;27;20068;-47
2024/03/20 01:40:12;;;;;;;23.52;13.30;;;;;;;5.03;62.31;100862.69;5131761;27;20175;-50
2024/03/20 01:42:39;;;;;;;26.88;13.90;;;;;;;5.08;62.25;100862.53;5131697;27;20111;-46
2024/03/20 01:45:13;;;;;;;30.13;14.93;;;;;;;4.89;62.23;100862.19;5131844;27;20407;-46
2024/03/20 01:47:41;;;;;;;28.02;14.57;;;;;;;5.05;62.25;100854.72;5131513;27;20508;-48
2024/03/20 01:50:10;;;;;;;28.50;15.43;;;;;;;5.07;62.83;100860.81;5131408;27;20047;-47
2024/03/20 01:52:50;;;;;;;31.00;15.57;;;;;;;4.98;62.66;100863.72;5131111;27;20130;-45
2024/03/20 01:55:21;;;;;;;26.40;13.93;;;;;;;4.82;64.14;100852.69;5131587;27;20057;-47
2024/03/20 01:57:48;;;;;;;29.55;15.27;;;;;;;4.84;63.73;100856.16;5131340;27;20079;-48
2024/03/20 02:00:21;;;;;;;29.98;15.20;;;;;;;4.84;64.07;100845.59;5131314;27;20542;-46
2024/03/20 02:02:49;;;;;;;32.17;15.05;;;;;;;4.84;64.36;100856.16;5131605;27;20068;-46
2024/03/20 02:05:16;;;;;;;29.08;15.20;;;;;;;4.77;64.48;100857.25;5131487;27;20399;-46
2024/03/20 02:07:45;;;;;;;30.48;15.82;;;;;;;4.60;66.06;100847.09;5131543;27;20388;-47
2024/03/20 02:10:13;;;;;;;32.20;15.60;;;;;;;4.64;65.60;100842.63;5131086;27;20050;-46
2024/03/20 02:12:40;;;;;;;30.25;15.88;;;;;;;4.67;65.30;100858.38;5131333;27;20035;-48
2024/03/20 02:15:09;;;;;;;28.20;15.13;;;;;;;4.60;65.94;100858.53;5131219;27;20070;-46
2024/03/20 02:17:37;;;;;;;30.20;15.90;;;;;;;4.62;65.91;100854.97;5131592;27;20066;-44
2024/03/20 02:20:06;;;;;;;32.97;16.48;;;;;;;4.53;66.13;100864.00;5132820;27;20043;-47
2024/03/20 02:22:40;;;;;;;33.88;16.77;;;;;;;4.45;67.05;100863.38;5131873;27;20096;-46
2024/03/20 02:25:07;;;;;;;31.73;17.27;;;;;;;4.48;66.16;100858.00;5131653;27;20070;-48
2024/03/20 02:27:35;;;;;;;33.63;16.80;;;;;;;4.46;66.10;100860.69;5131225;27;20066;-45
2024/03/20 02:30:04;;;;;;;33.90;16.45;;;;;;;4.44;66.51;100864.25;5131744;27;20075;-46
2024/03/20 02:32:31;;;;;;;35.72;17.08;;;;;;;4.22;66.51;100866.56;5131688;27;20039;-47
2024/03/20 02:34:58;;;;;;;38.65;17.58;;;;;;;4.24;66.99;100870.03;5131314;27;20042;-47
2024/03/20 02:37:26;;;;;;;36.70;17.88;;;;;;;4.28;67.46;100874.34;5131532;27;20086;-45
2024/03/20 02:39:54;;;;;;;39.80;17.33;;;;;;;4.37;67.36;100882.03;5131815;27;20047;-46
2024/03/20 02:42:22;;;;;;;41.20;18.70;;;;;;;4.26;66.65;100876.16;5132102;27;20046;-47
2024/03/20 02:44:50;;;;;;;43.45;18.35;;;;;;;4.44;66.41;100872.16;5131499;27;20488;-45
2024/03/20 02:47:17;;;;;;;38.67;19.35;;;;;;;4.52;66.39;100875.50;5132184;27;20054;-45
2024/03/20 02:49:46;;;;;;;38.67;18.88;;;;;;;4.43;66.21;100878.38;5130398;27;20047;-47
2024/03/20 02:52:14;;;;;;;41.28;18.92;;;;;;;4.40;66.65;100884.59;5130492;27;20559;-46
2024/03/20 02:54:41;;;;;;;37.80;19.45;;;;;;;4.22;67.69;100882.41;5130679;27;20054;-46
2024/03/20 02:57:10;;;;;;;41.22;18.25;;;;;;;4.22;68.17;100882.41;5130738;27;20039;-46
2024/03/20 02:59:37;;;;;;;40.88;19.08;;;;;;;4.37;68.14;100882.03;5130703;27;20050;-46
2024/03/20 03:02:06;;;;;;;34.67;18.13;;;;;;;4.21;68.70;100888.59;5130936;27;20043;-46
2024/03/20 03:04:33;;;;;;;38.85;18.45;;;;;;;4.35;68.60;100890.91;5130254;27;20051;-46
2024/03/20 03:07:01;;;;;;;41.83;19.02;;;;;;;4.42;68.76;100893.34;5130019;27;20043;-46
2024/03/20 03:09:29;;;;;;;33.28;18.05;;;;;;;4.32;69.02;100883.91;5130112;27;20484;-49
2024/03/20 03:11:56;;;;;;;38.03;19.00;;;;;;;4.39;68.77;100885.50;5131664;28;20111;-47
2024/03/20 03:14:24;;;;;;;36.97;17.50;;;;;;;4.43;69.13;100892.44;5130177;28;20047;-47
2024/03/20 03:16:52;;;;;;;42.13;18.90;;;;;;;4.20;69.83;100885.09;5130051;27;20043;-48
2024/03/20 03:19:19;;;;;;;40.10;19.08;;;;;;;4.29;70.31;100887.50;5130380;27;20062;-47
2024/03/20 03:21:46;;;;;;;39.47;19.10;;;;;;;4.35;70.29;100883.88;5129917;27;20049;-47
2024/03/20 03:24:13;;;;;;;41.50;19.58;;;;;;;4.11;71.52;100890.59;5130439;27;20043;-47
2024/03/20 03:26:41;;;;;;;40.53;19.02;;;;;;;4.29;70.80;100891.91;5130234;27;20044;-45
2024/03/20 03:29:08;;;;;;;35.08;19.13;;;;;;;3.99;71.42;100881.19;5130407;27;20125;-47
2024/03/20 03:31:37;;;;;;;39.38;19.23;;;;;;;4.25;70.90;100890.28;5130225;27;20054;-47
2024/03/20 03:34:04;;;;;;;36.53;18.20;;;;;;;4.19;70.73;100888.63;5130114;27;20092;-45
2024/03/20 03:36:32;;;;;;;38.90;19.20;;;;;;;4.37;70.20;100892.59;5130336;28;20072;-48
2024/03/20 03:38:59;;;;;;;36.05;18.85;;;;;;;4.43;70.24;100902.13;5130177;27;20070;-46
2024/03/20 03:41:26;;;;;;;37.30;19.25;;;;;;;4.18;71.94;100896.59;5129936;28;20126;-46
2024/03/20 03:43:54;;;;;;;40.78;19.85;;;;;;;4.17;72.00;100894.88;5129958;27;20052;-48
2024/03/20 03:46:21;;;;;;;39.28;21.00;;;;;;;4.27;71.89;100902.53;5129988;27;20099;-46
2024/03/20 03:48:50;;;;;;;36.65;20.08;;;;;;;4.31;71.69;100900.66;5129967;27;20097;-47
2024/03/20 03:51:17;;;;;;;38.05;21.15;;;;;;;4.32;72.04;100905.03;5129990;27;20123;-50
2024/03/20 03:53:44;;;;;;;39.22;21.58;;;;;;;4.29;71.97;100910.41;5130426;27;20055;-46
2024/03/20 03:56:11;;;;;;;41.20;21.60;;;;;;;4.23;72.47;100910.53;5129821;27;20073;-45
2024/03/20 03:58:38;;;;;;;47.92;23.17;;;;;;;4.27;72.23;100901.66;5130007;27;20035;-46
2024/03/20 04:01:07;;;;;;;39.63;22.58;;;;;;;4.36;72.36;100912.00;5129820;27;20043;-47
2024/03/20 04:03:34;;;;;;;35.42;19.70;;;;;;;4.38;72.70;100907.53;5129803;27;20043;-46
2024/03/20 04:06:03;;;;;;;40.00;19.90;;;;;;;4.30;72.60;100909.50;5130150;27;20062;-48
2024/03/20 04:08:30;;;;;;;38.78;21.20;;;;;;;4.23;72.82;100910.53;5129815;27;20043;-48
2024/03/20 04:10:58;;;;;;;36.47;20.95;;;;;;;4.17;73.51;100908.94;5129803;27;20384;-47
2024/03/20 04:13:25;;;;;;;40.33;20.90;;;;;;;4.20;73.71;100905.34;5129976;27;20051;-46
2024/03/20 04:15:53;;;;;;;39.20;20.98;;;;;;;4.25;73.45;100906.13;5130348;27;20125;-45
2024/03/20 04:18:21;;;;;;;39.78;21.05;;;;;;;4.25;73.02;100907.00;5133255;27;20043;-47
2024/03/20 04:20:48;;;;;;;36.25;19.90;;;;;;;4.23;73.08;100908.78;5133444;27;20043;-47
2024/03/20 04:23:17;;;;;;;37.08;20.85;;;;;;;4.22;73.05;100909.69;5133379;27;20488;-45
2024/03/20 04:25:44;;;;;;;43.40;20.50;;;;;;;4.20;72.64;100910.63;5134306;27;20098;-48
2024/03/20 04:28:11;;;;;;;38.85;21.13;;;;;;;4.25;72.91;100908.75;5133816;27;20050;-48
2024/03/20 04:30:39;;;;;;;43.42;22.45;;;;;;;4.27;72.95;100904.31;5133091;27;20062;-48
2024/03/20 04:33:07;;;;;;;47.25;25.02;;;;;;;4.19;73.43;100914.19;5133652;27;20125;-46
2024/03/20 04:35:34;;;;;;;60.80;31.05;;;;;;;4.14;73.35;100916.03;5133063;27;20460;-47
2024/03/20 04:38:02;;;;;;;65.55;34.97;;;;;;;4.10;74.11;100917.03;5132913;27;20048;-47
2024/03/20 04:40:31;;;;;;;79.10;40.15;;;;;;;4.17;74.10;100916.84;5133043;27;20143;-48
2024/03/20 04:42:58;;;;;;;94.15;45.42;;;;;;;4.00;75.18;100925.16;5132822;27;20075;-45
2024/03/20 04:45:26;;;;;;;81.10;40.88;;;;;;;4.17;74.86;100937.13;5132860;27;20518;-46
2024/03/20 04:47:53;;;;;;;60.22;32.97;;;;;;;4.18;74.57;100938.84;5133222;27;20088;-48
2024/03/20 04:50:21;;;;;;;62.65;33.25;;;;;;;4.17;74.92;100937.97;5133114;27;20055;-46
2024/03/20 04:52:48;;;;;;;66.25;32.15;;;;;;;3.94;76.17;100937.59;5132921;27;20126;-48
2024/03/20 04:55:15;;;;;;;55.30;28.52;;;;;;;3.99;75.98;100946.31;5132851;27;20089;-47
2024/03/20 04:57:44;;;;;;;48.28;24.13;;;;;;;3.93;76.32;100939.38;5132809;27;20139;-46
2024/03/20 05:00:15;;;;;;;40.83;20.50;;;;;;;3.77;77.42;100935.34;5132933;27;20404;-46
2024/03/20 05:02:42;;;;;;;38.83;19.90;;;;;;;3.80;78.15;100948.47;5133125;27;20043;-47
2024/03/20 05:05:10;;;;;;;41.78;20.92;;;;;;;3.91;77.56;100945.59;5132844;27;20047;-48
2024/03/20 05:07:38;;;;;;;37.17;20.20;;;;;;;4.05;77.27;100953.22;5132821;27;20039;-49
2024/03/20 05:10:05;;;;;;;44.00;22.20;;;;;;;4.16;76.55;100948.59;5132478;27;20072;-47
2024/03/20 05:12:33;;;;;;;44.47;22.27;;;;;;;4.27;75.84;100950.06;5132407;27;20051;-47
2024/03/20 05:15:02;;;;;;;43.92;22.13;;;;;;;4.29;75.48;100947.38;5133178;27;20122;-48
2024/03/20 05:17:30;;;;;;;43.20;22.00;;;;;;;4.38;75.18;100955.09;5133351;27;20459;-49
2024/03/20 05:19:57;;;;;;;45.30;22.98;;;;;;;4.45;74.47;100947.91;5132704;27;20051;-46
2024/03/20 05:22:24;;;;;;;38.83;20.52;;;;;;;4.35;74.29;100944.59;5132549;27;20457;-46
2024/03/20 05:24:52;;;;;;;38.65;19.63;;;;;;;4.28;74.05;100946.50;5132230;27;20055;-46
2024/03/20 05:27:20;;;;;;;40.83;20.30;;;;;;;4.22;74.33;100948.41;5131660;27;20169;-45
2024/03/20 05:29:48;;;;;;;36.65;19.02;;;;;;;4.15;74.08;100949.44;5132370;27;20047;-45
2024/03/20 05:32:17;;;;;;;39.13;18.85;;;;;;;4.25;74.47;100956.28;5132386;27;20047;-46
2024/03/20 05:34:43;;;;;;;36.38;19.35;;;;;;;4.41;73.88;100957.66;5132168;27;20423;-47
2024/03/20 05:37:11;;;;;;;37.83;19.33;;;;;;;4.34;74.30;100956.06;5132281;27;20088;-48
2024/03/20 05:39:37;;;;;;;37.67;18.90;;;;;;;4.43;73.38;100953.19;5132064;27;20055;-48
2024/03/20 05:42:05;;;;;;;37.90;19.17;;;;;;;4.56;73.43;100957.31;5132229;27;20059;-47
2024/03/20 05:44:31;;;;;;;36.05;18.45;;;;;;;4.41;73.40;100957.66;5131685;27;20074;-45
2024/03/20 05:46:59;;;;;;;37.65;19.13;;;;;;;4.47;73.39;100957.53;5132018;27;20071;-45
2024/03/20 05:49:27;;;;;;;36.72;19.20;;;;;;;4.51;72.65;100956.53;5131769;27;20043;-45
2024/03/20 05:51:54;;;;;;;36.13;19.30;;;;;;;4.66;72.63;100957.06;5131841;27;20046;-46
2024/03/20 05:54:21;;;;;;;39.55;20.10;;;;;;;4.64;72.07;100958.91;5131684;27;20043;-47
2024/03/20 05:56:49;;;;;;;35.97;19.33;;;;;;;4.68;71.79;100964.06;5132069;27;20164;-46
2024/03/20 05:59:16;;;;;;;43.72;21.20;;;;;;;4.77;71.47;100969.09;5132019;27;20050;-47
2024/03/20 06:01:44;;;;;;;40.67;21.13;;;;;;;4.88;71.19;100968.84;5131933;27;20484;-46
2024/03/20 06:04:10;;;;;;;41.03;21.73;;;;;;;5.08;70.55;100955.09;5131523;27;20083;-46
2024/03/20 06:06:40;;;;;;;43.30;21.73;;;;;;;5.27;69.28;100956.34;5131719;27;20536;-47
2024/03/20 06:09:10;;;;;;;40.95;21.75;;;;;;;5.07;69.04;100970.09;5131447;27;20142;-47
2024/03/20 06:11:44;;;;;;;37.25;20.85;;;;;;;5.36;68.57;100963.16;5129984;27;20054;-48
2024/03/20 06:14:10;;;;;;;40.15;20.83;;;;;;;5.73;67.65;100965.66;5129715;27;20145;-46
2024/03/20 06:16:37;;;;;;;43.05;21.52;;;;;;;5.63;67.43;100965.03;5130324;27;20047;-47
2024/03/20 06:19:04;;;;;;;38.22;19.98;;;;;;;5.84;66.24;100975.91;5128403;27;20503;-46
2024/03/20 06:21:31;;;;;;;39.70;21.55;;;;;;;5.95;65.94;100972.06;5129949;27;20555;-46
2024/03/20 06:23:59;;;;;;;37.20;20.35;;;;;;;6.08;65.26;100972.59;5129980;27;20115;-48
2024/03/20 06:26:26;;;;;;;42.10;21.23;;;;;;;6.15;64.99;100982.06;5129975;27;20051;-46
2024/03/20 06:28:53;;;;;;;39.45;20.35;;;;;;;6.21;64.02;100973.94;5128811;27;20097;-46
2024/03/20 06:31:21;;;;;;;38.55;21.63;;;;;;;6.31;63.53;100975.41;5130203;27;20134;-48
2024/03/20 06:33:48;;;;;;;37.58;19.50;;;;;;;6.44;63.32;100969.69;5129975;27;20183;-45
2024/03/20 06:36:16;;;;;;;36.33;19.50;;;;;;;6.71;62.47;100970.59;5130303;27;20057;-47
2024/03/20 06:38:42;;;;;;;36.13;19.65;;;;;;;6.47;61.78;100974.94;5127741;27;20515;-47
2024/03/20 06:41:13;;;;;;;39.22;18.58;;;;;;;6.49;61.51;100978.38;5129641;27;20426;-46
2024/03/20 06:43:39;;;;;;;36.33;18.67;;;;;;;6.89;61.50;100972.66;5129743;27;20152;-46
2024/03/20 06:46:06;;;;;;;33.55;18.75;;;;;;;7.22;60.90;100981.22;5129081;27;20053;-47
2024/03/20 06:48:32;;;;;;;36.42;18.38;;;;;;;7.25;60.20;100981.13;5128257;27;20570;-47
2024/03/20 06:51:00;;;;;;;38.13;19.67;;;;;;;7.20;59.33;100982.22;5129714;27;20043;-45
2024/03/20 06:53:26;;;;;;;32.05;17.73;;;;;;;7.39;59.87;100988.59;5129565;27;20054;-45
2024/03/20 06:55:55;;;;;;;36.65;19.35;;;;;;;7.61;59.69;100978.06;5129491;27;20047;-48
2024/03/20 06:58:23;;;;;;;34.63;19.33;;;;;;;7.81;59.63;100985.31;5111684;27;20075;-47
2024/03/20 07:00:51;;;;;;;37.33;19.58;;;;;;;7.96;58.58;100990.94;5121046;27;20138;-45
2024/03/20 07:03:18;;;;;;;34.85;19.05;;;;;;;7.99;57.42;100996.13;5129299;27;20138;-46
2024/03/20 07:05:46;;;;;;;34.60;18.80;;;;;;;8.26;57.12;100999.50;5129301;27;20103;-47
2024/03/20 07:08:12;;;;;;;33.33;18.13;;;;;;;8.36;56.61;101002.72;5111709;27;20084;-48
2024/03/20 07:10:40;;;;;;;32.65;18.52;;;;;;;8.47;56.52;100999.63;5129311;27;20536;-45
2024/03/20 07:13:07;;;;;;;33.25;17.77;;;;;;;8.51;55.75;101002.13;5129043;27;20053;-45
2024/03/20 07:15:36;;;;;;;34.75;17.63;;;;;;;8.70;55.70;101002.25;5130627;28;20043;-45
2024/03/20 07:18:03;;;;;;;31.35;17.65;;;;;;;8.83;54.62;101005.28;5128738;27;20177;-48
2024/03/20 07:20:30;;;;;;;30.40;17.63;;;;;;;8.93;54.10;101005.75;5128528;28;20047;-44
2024/03/20 07:22:57;;;;;;;33.17;18.40;;;;;;;9.17;54.04;101004.75;5128933;27;20074;-47
2024/03/20 07:25:26;;;;;;;32.95;18.27;;;;;;;9.22;53.71;101010.72;5129038;28;20414;-46
2024/03/20 07:27:53;;;;;;;31.02;18.08;;;;;;;9.42;53.43;101004.53;5127615;28;20153;-44
2024/03/20 07:30:21;;;;;;;34.20;18.88;;;;;;;9.54;52.92;101006.66;5129264;28;20054;-46
2024/03/20 07:32:48;;;;;;;32.00;18.00;;;;;;;9.66;51.97;101011.47;5128552;28;20132;-47
2024/03/20 07:35:16;;;;;;;34.45;18.67;;;;;;;9.75;51.91;101008.41;5129293;28;20043;-46
2024/03/20 07:37:43;;;;;;;30.85;18.55;;;;;;;8.96;53.50;101003.81;5128149;28;20051;-48
2024/03/20 07:40:10;;;;;;;34.28;17.83;;;;;;;8.46;54.71;101013.84;5128887;28;20068;-46
2024/03/20 07:42:39;;;;;;;34.45;17.52;;;;;;;8.54;54.94;101012.63;5129155;28;20073;-46
2024/03/20 07:45:07;;;;;;;30.73;16.70;;;;;;;8.54;54.86;101015.28;5128603;27;20453;-46
2024/03/20 07:47:33;;;;;;;30.50;16.38;;;;;;;8.51;52.98;101010.09;5127653;27;20130;-46
2024/03/20 07:50:03;;;;;;;36.38;17.80;;;;;;;8.95;53.46;101006.56;5128880;27;20043;-46
2024/03/20 07:52:29;;;;;;;30.10;16.45;;;;;;;8.93;53.08;101014.59;5131607;27;20038;-46
2024/03/20 07:54:57;;;;;;;31.02;16.35;;;;;;;8.76;53.16;101014.41;5132372;27;20453;-46
2024/03/20 07:57:25;;;;;;;38.60;20.50;;;;;;;8.91;53.11;101008.47;5131571;27;20043;-46
2024/03/20 07:59:53;;;;;;;42.28;22.35;;;;;;;9.09;51.93;101007.72;5132834;27;20101;-45
2024/03/20 08:02:20;;;;;;;35.28;19.35;;;;;;;9.22;51.45;100999.22;5132837;27;20118;-45
2024/03/20 08:04:48;;;;;;;28.23;16.50;;;;;;;8.99;51.51;101005.50;5132537;27;20511;-47
2024/03/20 08:07:16;;;;;;;27.48;16.45;;;;;;;9.30;49.83;100999.75;5133355;27;20164;-48
2024/03/20 08:09:46;;;;;;;31.92;16.77;;;;;;;9.42;50.13;100993.88;5133833;27;20047;-47
2024/03/20 08:12:12;;;;;;;30.17;16.83;;;;;;;9.52;49.71;101003.19;5143033;27;20054;-46
2024/03/20 08:14:40;;;;;;;30.02;17.25;;;;;;;9.43;50.65;101000.94;5134047;27;20047;-46
2024/03/20 08:17:07;;;;;;;35.20;17.98;;;;;;;9.48;51.00;100998.97;5131570;27;20100;-47
2024/03/20 08:19:35;;;;;;;26.92;16.17;;;;;;;9.51;50.14;100997.94;5132062;27;20122;-46
2024/03/20 08:22:01;;;;;;;31.13;16.17;;;;;;;9.53;51.42;101001.41;5132986;27;20043;-46
2024/03/20 08:24:30;;;;;;;28.88;16.20;;;;;;;9.59;51.31;100998.47;5132380;27;20138;-47
2024/03/20 08:26:58;;;;;;;32.70;17.60;;;;;;;9.48;49.89;100998.09;5131503;27;20043;-48
2024/03/20 08:29:25;;;;;;;31.35;16.75;;;;;;;9.80;49.73;100997.53;5132128;27;20061;-47
2024/03/20 08:31:51;;;;;;;28.15;16.73;;;;;;;9.96;49.65;101001.22;5132627;27;20047;-48
2024/03/20 08:34:18;;;;;;;26.63;14.55;;;;;;;9.82;48.35;101002.78;5131584;27;20039;-47
2024/03/20 08:36:44;;;;;;;31.20;14.65;;;;;;;9.94;47.37;100997.78;5132699;27;20407;-47
2024/03/20 08:39:12;;;;;;;25.10;14.63;;;;;;;9.83;47.88;100993.84;5131215;27;20076;-47
2024/03/20 08:41:40;;;;;;;26.50;14.15;;;;;;;10.16;47.80;100991.44;5131190;27;20145;-44
2024/03/20 08:44:08;;;;;;;25.88;15.23;;;;;;;10.29;48.28;100997.94;5132568;27;20035;-46
2024/03/20 08:46:36;;;;;;;30.00;14.85;;;;;;;10.12;48.18;100998.69;5131937;27;20043;-45
2024/03/20 08:49:04;;;;;;;25.40;15.02;;;;;;;10.18;48.09;100998.44;5130840;27;20058;-45
2024/03/20 08:51:30;;;;;;;28.70;14.80;;;;;;;10.28;47.78;100989.09;5132404;27;20043;-45
2024/03/20 08:53:57;;;;;;;27.33;16.45;;;;;;;10.22;48.10;100985.84;5131991;27;20046;-45
2024/03/20 08:56:24;;;;;;;27.75;15.60;;;;;;;10.47;47.88;100985.56;5131886;27;20054;-46
2024/03/20 08:58:52;;;;;;;29.30;15.70;;;;;;;10.63;46.57;100986.53;5130320;27;20107;-48
2024/03/20 09:01:19;;;;;;;25.45;14.88;;;;;;;10.87;47.00;100984.47;5131684;27;20051;-46
2024/03/20 09:03:46;;;;;;;30.10;16.38;;;;;;;10.81;45.77;100987.44;5131788;27;20093;-48
2024/03/20 09:06:13;;;;;;;27.88;15.63;;;;;;;10.67;47.57;100982.78;5131455;27;20729;-46
2024/03/20 09:08:40;;;;;;;31.23;16.13;;;;;;;10.81;46.93;100977.63;5131218;27;20047;-46
2024/03/20 09:11:06;;;;;;;28.48;16.10;;;;;;;11.11;46.80;100977.91;5132031;27;20051;-45
2024/03/20 09:13:34;;;;;;;26.42;14.73;;;;;;;11.00;45.90;100979.34;5130970;27;20052;-46
2024/03/20 09:16:01;;;;;;;23.13;12.98;;;;;;;11.13;45.44;100975.16;5131694;27;20073;-47
2024/03/20 09:18:28;;;;;;;24.25;14.05;;;;;;;11.17;45.31;100968.69;5130397;27;20074;-46
2024/03/20 09:20:56;;;;;;;20.13;12.15;;;;;;;11.34;44.76;100973.19;5131139;27;20048;-46
2024/03/20 09:23:23;;;;;;;18.60;11.63;;;;;;;11.03;44.71;100969.41;5131384;27;20482;-47
2024/03/20 09:25:52;;;;;;;16.30;10.02;;;;;;;11.44;44.09;100969.94;5131439;27;20055;-46
2024/03/20 09:28:19;;;;;;;16.50;10.13;;;;;;;11.72;43.44;100968.50;5130311;27;20089;-46
2024/03/20 09:30:45;;;;;;;18.63;11.07;;;;;;;11.83;43.20;100966.13;5132563;27;20411;-47
2024/03/20 09:33:16;;;;;;;19.27;10.23;;;;;;;11.91;41.98;100963.91;5132133;27;20047;-46
2024/03/20 09:35:42;;;;;;;17.92;10.38;;;;;;;11.85;42.21;100958.88;5123547;27;20047;-48
2024/03/20 09:38:10;;;;;;;19.92;11.45;;;;;;;11.90;41.79;100958.66;5130689;27;20047;-47
2024/03/20 09:40:36;;;;;;;19.85;10.70;;;;;;;12.04;41.06;100962.28;5130916;27;20119;-47
2024/03/20 09:43:06;;;;;;;17.63;9.52;;;;;;;12.29;39.97;100956.44;5131126;27;20496;-45
2024/03/20 09:45:34;;;;;;;20.15;10.88;;;;;;;12.22;40.30;100946.16;5131976;27;20055;-49
2024/03/20 09:48:01;;;;;;;16.45;9.82;;;;;;;12.19;40.72;100959.72;5130216;27;20397;-46
2024/03/20 09:50:29;;;;;;;15.90;9.40;;;;;;;12.13;40.17;100947.53;5131087;27;20135;-46
2024/03/20 09:52:57;;;;;;;16.55;9.40;;;;;;;12.33;40.43;100943.75;5130632;27;20151;-47
2024/03/20 09:55:23;;;;;;;16.13;9.27;;;;;;;12.46;40.21;100950.16;5130528;27;20049;-48
2024/03/20 09:57:50;;;;;;;21.38;9.30;;;;;;;12.45;40.98;100943.06;5129485;27;20043;-47
2024/03/20 10:00:18;;;;;;;16.75;9.57;;;;;;;12.47;40.48;100946.53;5130629;27;20059;-46
2024/03/20 10:02:47;;;;;;;17.70;9.88;;;;;;;12.50;40.19;100950.81;5130571;27;20052;-45
2024/03/20 10:05:15;;;;;;;16.48;9.45;;;;;;;12.60;39.65;100942.19;5130465;27;20058;-48
2024/03/20 10:07:45;;;;;;;17.17;10.32;;;;;;;12.71;40.02;100933.53;5128823;27;20043;-45
2024/03/20 10:10:13;;;;;;;15.70;9.45;;;;;;;12.51;40.30;100932.00;5130717;27;20463;-46
2024/03/20 10:12:40;;;;;;;20.13;10.43;;;;;;;12.52;40.07;100928.38;5130551;27;20058;-44
2024/03/20 10:15:07;;;;;;;71.82;14.10;;;;;;;12.66;39.36;100924.06;5129251;27;20136;-47
2024/03/20 10:17:36;;;;;;;21.13;10.18;;;;;;;12.74;39.20;100921.75;5127668;27;20047;-49
2024/03/20 10:20:14;;;;;;;47.63;12.55;;;;;;;12.70;40.20;100918.41;5129256;27;20054;-48
2024/03/20 10:22:42;;;;;;;22.42;9.68;;;;;;;12.59;38.98;100924.41;5121969;27;20088;-48
2024/03/20 10:25:13;;;;;;;21.67;9.35;;;;;;;12.70;39.16;100912.19;5130132;27;20054;-47
2024/03/20 10:27:41;;;;;;;19.95;9.25;;;;;;;12.80;39.11;100906.22;5128645;27;20043;-48
2024/03/20 10:30:14;;;;;;;16.67;9.43;;;;;;;12.78;38.25;100910.81;5129503;27;20085;-47
2024/03/20 10:32:47;;;;;;;16.55;9.38;;;;;;;12.97;37.84;100913.25;5129664;27;20047;-49
2024/03/20 10:35:15;;;;;;;16.55;9.50;;;;;;;13.18;37.58;100903.94;5129729;27;20050;-45
2024/03/20 10:37:44;;;;;;;15.05;8.63;;;;;;;13.04;37.83;100898.56;5128992;27;20054;-48
2024/03/20 10:40:16;;;;;;;16.20;8.63;;;;;;;13.14;38.07;100891.69;5130390;27;20158;-45
2024/03/20 10:42:45;;;;;;;15.35;9.38;;;;;;;13.20;37.99;100892.28;5129815;27;20092;-46
2024/03/20 10:45:12;;;;;;;16.85;9.38;;;;;;;13.32;37.38;100886.19;5129421;27;20046;-47
2024/03/20 10:47:40;;;;;;;16.20;9.35;;;;;;;13.28;37.68;100890.00;5127778;27;20051;-46
2024/03/20 10:50:13;;;;;;;16.02;8.93;;;;;;;13.28;37.61;100888.19;5129396;27;20515;-47
2024/03/20 10:52:42;;;;;;;17.75;9.63;;;;;;;13.05;38.09;100884.22;5121198;27;20046;-46
2024/03/20 10:55:11;;;;;;;14.38;9.07;;;;;;;13.18;37.31;100870.91;5129641;27;20361;-47
2024/03/20 10:57:40;;;;;;;15.18;8.65;;;;;;;13.14;37.02;100874.75;5128255;27;20100;-46
2024/03/20 11:00:14;;;;;;;16.25;9.25;;;;;;;13.32;36.51;100875.47;5129660;27;20043;-49
2024/03/20 11:02:41;;;;;;;18.58;9.10;;;;;;;13.28;36.78;100880.16;5129655;27;20138;-47
2024/03/20 11:05:38;;;;;;;17.05;9.43;;;;;;;13.41;37.06;100877.56;5121819;27;20500;-47
2024/03/20 11:08:09;;;;;;;14.73;8.88;;;;;;;13.53;37.53;100879.50;5128499;27;20058;-47
2024/03/20 11:10:37;;;;;;;17.95;10.27;;;;;;;13.59;37.21;100871.06;5129777;27;20417;-48
2024/03/20 11:13:05;;;;;;;16.48;10.00;;;;;;;13.57;37.85;100864.94;5131453;28;20139;-46
2024/03/20 11:15:32;;;;;;;17.83;10.52;;;;;;;13.75;37.32;100862.91;5133539;27;20047;-47
2024/03/20 11:18:00;;;;;;;19.63;10.65;;;;;;;13.72;37.55;100869.34;5135186;27;20044;-47
2024/03/20 11:20:42;;;;;;;17.27;10.57;;;;;;;13.63;37.60;100871.75;5131365;28;20100;-47